Time;durP1;ratioP1;P1;durP2;ratioP2;P2;SDS_P1;SDS_P2;PMS_P1;PMS_P2;Temp;Humidity;BMP_temperature;BMP_pressure;BME280_temperature;BME280_humidity;BME280_pressure;Samples;Min_cycle;Max_cycle;Signal;HPM_P1;HPM_P2
2023/06/11 00:01:30;;;;;;;12.20;5.60;;;;;;;18.03;47.66;100496.06;103548;1253;138757;-67
2023/06/11 00:04:25;;;;;;;12.30;5.00;;;;;;;17.95;47.65;100494.09;104017;1254;111763;-67
2023/06/11 00:06:54;;;;;;;9.00;4.80;;;;;;;17.91;47.61;100493.65;104230;1251;108015;-66
2023/06/11 00:09:22;;;;;;;9.40;4.50;;;;;;;17.88;47.62;100493.30;103884;1254;138117;-67
2023/06/11 00:11:50;;;;;;;7.70;4.60;;;;;;;17.85;47.55;100494.37;103542;1251;108786;-67
2023/06/11 00:14:17;;;;;;;6.50;4.20;;;;;;;17.81;47.50;100494.25;103876;1251;137984;-67
2023/06/11 00:16:45;;;;;;;9.00;4.30;;;;;;;17.76;47.70;100497.68;103533;1251;112209;-67
2023/06/11 00:19:13;;;;;;;6.30;4.50;;;;;;;17.74;47.57;100496.92;103432;1254;107272;-67
2023/06/11 00:21:43;;;;;;;9.40;4.60;;;;;;;17.70;47.74;100496.08;104589;1256;137544;-67
2023/06/11 00:24:12;;;;;;;10.80;4.40;;;;;;;17.69;47.52;100496.85;103481;1256;108156;-67
2023/06/11 00:26:40;;;;;;;7.50;4.60;;;;;;;17.68;47.47;100496.90;103383;1253;138222;-68
2023/06/11 00:29:07;;;;;;;8.30;4.70;;;;;;;17.68;47.33;100501.98;103508;1251;112018;-69
2023/06/11 00:31:36;;;;;;;14.80;4.70;;;;;;;17.67;47.19;100495.70;103283;1251;138002;-69
2023/06/11 00:34:04;;;;;;;11.10;4.40;;;;;;;17.64;46.95;100496.95;104380;1251;97796;-69
2023/06/11 00:36:33;;;;;;;7.40;4.10;;;;;;;17.58;46.87;100493.56;103445;1256;109191;-67
2023/06/11 00:39:01;;;;;;;8.10;4.70;;;;;;;17.55;46.80;100500.27;103859;1253;137817;-67
2023/06/11 00:41:31;;;;;;;10.10;4.20;;;;;;;17.52;46.75;100498.46;104338;1254;112535;-67
2023/06/11 00:43:58;;;;;;;8.00;4.40;;;;;;;17.51;46.59;100502.41;103299;1251;138132;-67
2023/06/11 00:46:26;;;;;;;13.80;4.60;;;;;;;17.47;46.51;100508.79;103397;1251;97820;-67
2023/06/11 00:48:55;;;;;;;9.70;5.30;;;;;;;17.41;46.33;100507.91;103474;1257;108384;-67
2023/06/11 00:51:24;;;;;;;8.50;4.20;;;;;;;17.34;46.39;100510.73;103387;1254;138381;-68
2023/06/11 00:53:53;;;;;;;6.10;4.50;;;;;;;17.30;46.39;100512.04;103555;1253;112530;-68
2023/06/11 00:56:21;;;;;;;9.70;4.70;;;;;;;17.26;46.38;100510.01;103647;1251;137834;-68
2023/06/11 00:58:49;;;;;;;6.40;4.20;;;;;;;17.21;46.28;100506.56;103504;1251;97681;-68
2023/06/11 01:01:29;;;;;;;7.80;3.90;;;;;;;17.16;46.49;100509.64;103773;1253;108146;-68
2023/06/11 01:04:00;;;;;;;5.70;4.10;;;;;;;17.14;46.56;100507.52;103479;1254;98239;-68
2023/06/11 01:06:33;;;;;;;8.30;3.80;;;;;;;17.14;46.43;100510.14;104233;1253;110907;-68
2023/06/11 01:09:01;;;;;;;9.70;3.90;;;;;;;17.14;46.43;100509.41;103840;1254;138754;-68
2023/06/11 01:11:35;;;;;;;8.90;3.20;;;;;;;17.12;46.32;100507.41;103528;1251;97771;-68
2023/06/11 01:14:06;;;;;;;6.80;3.80;;;;;;;17.09;46.29;100508.30;104271;1254;137674;-68
2023/06/11 01:16:44;;;;;;;6.90;3.70;;;;;;;17.05;46.13;100511.84;103578;1253;98189;-68
2023/06/11 01:19:28;;;;;;;6.00;3.50;;;;;;;17.00;46.21;100514.24;103901;1254;112545;-66
2023/06/11 01:22:01;;;;;;;6.00;3.70;;;;;;;16.96;46.33;100518.15;103861;1256;107768;-66
2023/06/11 01:24:41;;;;;;;8.90;4.00;;;;;;;16.93;46.32;100519.53;103469;1254;97798;-66
2023/06/11 01:27:15;;;;;;;10.00;3.90;;;;;;;16.89;46.33;100518.48;103780;1255;138636;-68
2023/06/11 01:29:49;;;;;;;8.90;4.00;;;;;;;16.84;46.30;100525.23;104121;1251;97836;-68
2023/06/11 01:32:18;;;;;;;13.60;3.60;;;;;;;16.80;46.31;100529.52;103345;1251;137849;-68
2023/06/11 01:34:45;;;;;;;9.10;4.00;;;;;;;16.77;46.33;100529.73;103520;1253;108897;-69
2023/06/11 01:37:17;;;;;;;7.70;3.60;;;;;;;16.74;46.28;100529.34;103670;1251;97915;-68
2023/06/11 01:39:49;;;;;;;6.50;3.30;;;;;;;16.72;46.07;100531.35;103907;1251;137387;-66
2023/06/11 01:42:31;;;;;;;5.80;3.10;;;;;;;16.69;45.83;100531.70;103448;1251;97779;-67
2023/06/11 01:44:59;;;;;;;8.40;3.40;;;;;;;16.65;45.94;100538.00;103303;1254;137719;-67
2023/06/11 01:47:27;;;;;;;8.20;3.60;;;;;;;16.62;45.80;100535.19;103404;1256;108574;-67
2023/06/11 01:49:55;;;;;;;8.00;3.80;;;;;;;16.58;45.83;100539.60;103326;1254;138127;-67
2023/06/11 01:52:22;;;;;;;9.50;3.40;;;;;;;16.58;45.77;100541.89;103305;1254;108275;-67
2023/06/11 01:54:51;;;;;;;7.90;3.30;;;;;;;16.55;45.72;100540.48;103376;1255;97871;-67
2023/06/11 01:57:18;;;;;;;6.10;3.50;;;;;;;16.54;45.67;100544.41;104081;1251;137728;-67
2023/06/11 01:59:46;;;;;;;8.60;3.30;;;;;;;16.52;45.62;100546.63;104646;1254;107954;-67
2023/06/11 02:02:13;;;;;;;9.40;3.30;;;;;;;16.47;45.70;100548.60;103540;1250;138496;-67
2023/06/11 02:04:41;;;;;;;7.40;3.30;;;;;;;16.45;45.57;100550.50;103232;1256;108425;-67
2023/06/11 02:07:09;;;;;;;9.90;3.50;;;;;;;16.42;45.53;100553.12;103639;1257;97886;-66
2023/06/11 02:09:37;;;;;;;5.00;3.30;;;;;;;16.38;45.56;100557.34;103631;1253;137815;-67
2023/06/11 02:12:05;;;;;;;6.10;3.10;;;;;;;16.35;45.54;100559.96;103254;1257;107795;-67
2023/06/11 02:14:33;;;;;;;10.20;3.40;;;;;;;16.31;45.50;100562.92;104417;1253;137868;-67
2023/06/11 02:17:01;;;;;;;8.50;3.20;;;;;;;16.27;45.49;100561.19;103336;1254;108191;-67
2023/06/11 02:19:33;;;;;;;6.60;2.90;;;;;;;16.23;45.44;100561.98;103185;1259;138126;-67
2023/06/11 02:22:00;;;;;;;3.50;3.00;;;;;;;16.18;45.44;100562.23;103320;1259;110981;-66
2023/06/11 02:24:28;;;;;;;6.30;3.40;;;;;;;16.17;45.58;100565.09;103257;1257;107188;-66
2023/06/11 02:26:55;;;;;;;10.20;3.50;;;;;;;16.14;45.56;100565.21;103227;1258;138079;-66
2023/06/11 02:29:23;;;;;;;6.90;3.10;;;;;;;16.13;45.65;100565.81;103291;1257;108190;-67
2023/06/11 02:31:53;;;;;;;9.90;2.90;;;;;;;16.10;45.64;100567.38;103200;1257;138477;-67
2023/06/11 02:34:32;;;;;;;6.10;3.20;;;;;;;16.07;45.59;100570.64;103368;1256;111904;-67
2023/06/11 02:37:00;;;;;;;7.80;3.10;;;;;;;16.05;45.66;100577.96;103262;1259;108203;-67
2023/06/11 02:39:27;;;;;;;6.50;3.10;;;;;;;16.03;45.54;100580.15;104395;1253;137719;-66
2023/06/11 02:41:55;;;;;;;8.60;2.90;;;;;;;16.00;45.64;100579.98;103256;1255;107472;-67
2023/06/11 02:44:23;;;;;;;5.70;3.10;;;;;;;15.99;45.66;100588.26;103244;1257;138285;-66
2023/06/11 02:46:50;;;;;;;44.80;4.30;;;;;;;15.98;45.69;100586.00;103364;1259;111923;-67
2023/06/11 02:49:18;;;;;;;8.30;3.20;;;;;;;15.99;45.71;100588.05;103338;1253;108907;-67
2023/06/11 02:51:45;;;;;;;6.60;2.90;;;;;;;15.98;45.54;100590.05;103238;1257;137703;-67
2023/06/11 02:54:13;;;;;;;5.90;2.70;;;;;;;16.00;45.54;100591.39;104024;1256;107169;-67
2023/06/11 02:56:40;;;;;;;5.70;3.20;;;;;;;16.04;45.45;100593.09;103219;1258;137860;-67
2023/06/11 02:59:07;;;;;;;4.40;2.70;;;;;;;16.08;45.42;100596.40;103286;1257;111165;-67
2023/06/11 03:01:39;;;;;;;5.40;3.10;;;;;;;16.15;45.27;100588.86;103089;1259;138111;-67
2023/06/11 03:04:14;;;;;;;3.70;2.70;;;;;;;16.19;45.20;100596.38;103238;1257;97658;-67
2023/06/11 03:06:42;;;;;;;8.60;2.80;;;;;;;16.20;45.07;100596.69;103868;1256;108150;-68
2023/06/11 03:09:10;;;;;;;7.00;2.80;;;;;;;16.24;45.05;100600.17;103154;1256;137827;-67
2023/06/11 03:11:38;;;;;;;5.20;2.90;;;;;;;16.28;44.98;100601.50;104214;1256;111008;-68
2023/06/11 03:14:05;;;;;;;6.20;3.10;;;;;;;16.31;44.90;100604.89;103084;1259;138235;-68
2023/06/11 03:16:34;;;;;;;9.60;3.00;;;;;;;16.36;44.79;100603.77;103493;1254;98019;-67
2023/06/11 03:19:01;;;;;;;6.40;3.00;;;;;;;16.38;44.64;100610.38;103476;1258;107686;-68
2023/06/11 03:21:29;;;;;;;5.40;3.00;;;;;;;16.40;44.52;100608.66;103710;1254;137898;-67
2023/06/11 03:23:57;;;;;;;5.60;2.50;;;;;;;16.43;44.54;100603.95;103221;1255;111499;-67
2023/06/11 03:26:25;;;;;;;9.70;3.00;;;;;;;16.46;44.48;100609.39;103169;1259;137827;-67
2023/06/11 03:28:56;;;;;;;5.70;2.90;;;;;;;16.48;44.44;100608.95;103391;1262;97802;-67
2023/06/11 03:31:26;;;;;;;3.90;2.50;;;;;;;16.49;44.44;100605.91;103320;1256;107847;-67
2023/06/11 03:33:54;;;;;;;5.70;3.00;;;;;;;16.51;44.43;100608.79;104576;1253;95642;-67
2023/06/11 03:36:22;;;;;;;7.20;2.40;;;;;;;16.53;44.18;100614.33;104014;1259;110359;-67
2023/06/11 03:38:50;;;;;;;5.00;2.70;;;;;;;16.53;44.13;100611.54;103560;1254;138379;-67
2023/06/11 03:41:19;;;;;;;7.80;2.80;;;;;;;16.54;44.18;100614.46;103559;1259;98319;-67
2023/06/11 03:43:47;;;;;;;5.00;2.90;;;;;;;16.53;44.14;100619.06;103691;1253;138672;-67
2023/06/11 03:46:15;;;;;;;7.00;2.60;;;;;;;16.56;44.19;100624.88;104428;1259;96095;-67
2023/06/11 03:48:42;;;;;;;5.80;2.40;;;;;;;16.59;44.05;100623.11;103950;1259;112066;-67
2023/06/11 03:51:10;;;;;;;8.20;2.90;;;;;;;16.63;43.96;100624.52;103573;1259;137825;-67
2023/06/11 03:53:37;;;;;;;5.90;2.70;;;;;;;16.66;43.94;100626.13;103768;1258;97790;-66
2023/06/11 03:56:05;;;;;;;7.90;3.30;;;;;;;16.67;43.75;100628.55;103382;1254;137827;-66
2023/06/11 03:58:32;;;;;;;8.80;3.00;;;;;;;16.64;43.74;100634.81;103854;1257;97772;-67
2023/06/11 04:01:00;;;;;;;5.90;2.80;;;;;;;16.64;43.92;100633.95;103576;1258;111650;-67
2023/06/11 04:03:27;;;;;;;4.00;2.60;;;;;;;16.68;43.84;100641.80;104526;1258;137727;-67
2023/06/11 04:05:56;;;;;;;6.80;2.60;;;;;;;16.71;43.91;100637.17;104051;1254;97761;-67
2023/06/11 04:08:23;;;;;;;5.60;2.60;;;;;;;16.77;43.80;100642.42;104552;1254;137927;-67
2023/06/11 04:10:50;;;;;;;4.80;3.00;;;;;;;16.82;43.85;100642.67;103791;1255;97764;-67
2023/06/11 04:13:18;;;;;;;4.90;2.50;;;;;;;16.85;43.54;100648.81;103568;1259;111005;-66
2023/06/11 04:15:46;;;;;;;5.90;2.50;;;;;;;16.85;43.60;100647.81;103391;1254;137625;-67
2023/06/11 04:18:13;;;;;;;5.40;2.50;;;;;;;16.89;43.54;100649.69;103337;1259;98185;-66
2023/06/11 04:20:41;;;;;;;4.30;3.00;;;;;;;16.93;43.57;100652.33;103862;1254;137640;-67
2023/06/11 04:23:08;;;;;;;5.10;3.00;;;;;;;16.97;43.47;100652.10;103507;1260;97702;-67
2023/06/11 04:25:39;;;;;;;4.10;2.80;;;;;;;16.99;43.48;100651.85;103149;1254;138865;-67
2023/06/11 04:28:10;;;;;;;5.00;2.70;;;;;;;17.03;43.56;100646.69;103183;1258;108486;-67
2023/06/11 04:30:39;;;;;;;7.80;2.50;;;;;;;17.08;43.42;100651.17;103261;1256;97930;-67
2023/06/11 04:33:10;;;;;;;4.70;2.80;;;;;;;17.11;43.29;100650.88;103217;1260;137637;-67
2023/06/11 04:36:00;;;;;;;6.40;2.70;;;;;;;17.16;43.29;100649.69;104356;1260;96093;-67
2023/06/11 04:38:28;;;;;;;6.90;2.90;;;;;;;17.16;42.85;100648.80;103187;1259;137869;-66
2023/06/11 04:41:16;;;;;;;6.60;2.60;;;;;;;17.17;42.91;100654.70;103239;1258;108401;-67
2023/06/11 04:43:48;;;;;;;4.20;2.70;;;;;;;17.19;42.92;100654.44;103205;1255;138015;-68
2023/06/11 04:46:24;;;;;;;6.00;2.80;;;;;;;17.25;42.85;100657.13;104580;1254;106890;-67
2023/06/11 04:48:53;;;;;;;5.00;2.50;;;;;;;17.34;42.85;100659.45;103184;1269;97721;-67
2023/06/11 04:51:20;;;;;;;7.80;2.40;;;;;;;17.41;42.75;100659.44;104383;1254;137967;-68
2023/06/11 04:53:57;;;;;;;2.80;2.40;;;;;;;17.47;42.41;100658.41;103395;1259;107492;-67
2023/06/11 04:56:25;;;;;;;6.70;2.60;;;;;;;17.55;42.44;100659.89;104601;1255;138360;-68
2023/06/11 04:58:52;;;;;;;5.30;2.70;;;;;;;17.62;42.27;100661.31;103836;1258;108389;-67
2023/06/11 05:01:20;;;;;;;6.80;2.60;;;;;;;17.71;42.36;100661.70;103296;1260;98955;-67
2023/06/11 05:03:57;;;;;;;4.70;2.40;;;;;;;17.84;42.18;100661.31;103252;1258;113303;-67
2023/06/11 05:06:29;;;;;;;3.80;2.20;;;;;;;17.96;42.04;100665.77;103199;1254;108149;-67
2023/06/11 05:08:57;;;;;;;7.40;2.50;;;;;;;18.05;41.79;100666.61;104535;1254;137783;-67
2023/06/11 05:11:26;;;;;;;5.20;2.60;;;;;;;18.12;41.84;100665.86;104545;1254;108142;-68
2023/06/11 05:13:54;;;;;;;7.90;2.60;;;;;;;18.25;41.59;100669.55;104444;1253;137876;-68
2023/06/11 05:16:22;;;;;;;5.20;2.30;;;;;;;18.37;41.46;100670.29;104635;1254;110756;-67
2023/06/11 05:18:50;;;;;;;3.80;2.00;;;;;;;18.52;41.30;100668.89;104553;1255;107928;-68
2023/06/11 05:21:17;;;;;;;3.40;2.20;;;;;;;18.65;41.11;100669.52;103341;1254;138115;-68
2023/06/11 05:23:45;;;;;;;4.00;2.50;;;;;;;18.88;40.98;100666.39;104338;1253;107552;-68
2023/06/11 05:26:13;;;;;;;4.10;2.70;;;;;;;19.13;40.89;100668.77;103055;1259;138252;-68
2023/06/11 05:28:44;;;;;;;6.50;2.20;;;;;;;19.35;40.45;100670.25;103740;1259;111105;-67
2023/06/11 05:31:12;;;;;;;3.60;2.40;;;;;;;19.54;40.08;100671.88;103321;1257;108025;-68
2023/06/11 05:33:44;;;;;;;5.00;2.70;;;;;;;19.76;39.77;100674.57;103151;1254;138088;-68
2023/06/11 05:36:12;;;;;;;7.30;2.30;;;;;;;19.92;39.62;100678.46;103237;1257;108142;-68
2023/06/11 05:38:43;;;;;;;5.50;2.20;;;;;;;20.18;39.39;100677.16;103126;1254;138101;-68
2023/06/11 05:41:11;;;;;;;5.30;2.30;;;;;;;20.49;39.17;100683.60;103507;1253;111470;-68
2023/06/11 05:43:38;;;;;;;5.50;2.30;;;;;;;20.69;38.83;100674.11;103243;1257;137979;-68
2023/06/11 05:46:06;;;;;;;4.40;2.30;;;;;;;20.94;38.61;100679.35;103714;1257;97805;-68
2023/06/11 05:48:35;;;;;;;9.60;2.50;;;;;;;21.31;37.85;100680.13;103676;1260;107408;-68
2023/06/11 05:51:03;;;;;;;5.70;2.30;;;;;;;21.40;37.20;100676.86;103170;1254;138821;-68
2023/06/11 05:53:30;;;;;;;9.50;2.80;;;;;;;21.57;37.14;100681.64;103210;1254;111784;-68
2023/06/11 05:56:03;;;;;;;8.10;2.50;;;;;;;21.99;37.13;100678.81;103388;1254;138224;-68
2023/06/11 05:58:33;;;;;;;6.20;2.70;;;;;;;23.15;36.74;100677.10;103397;1254;98550;-68
2023/06/11 06:01:03;;;;;;;4.60;1.90;;;;;;;24.97;35.40;100672.40;103314;1254;107513;-68
2023/06/11 06:03:34;;;;;;;6.30;2.10;;;;;;;26.94;33.55;100665.22;104090;1254;137830;-69
2023/06/11 06:06:03;;;;;;;3.90;2.00;;;;;;;28.84;31.64;100660.27;104644;1254;111263;-69
2023/06/11 06:08:31;;;;;;;4.10;2.30;;;;;;;30.55;29.49;100659.73;104329;1254;138692;-69
2023/06/11 06:10:59;;;;;;;7.30;2.10;;;;;;;31.93;27.34;100660.52;103714;1254;97835;-69
2023/06/11 06:13:27;;;;;;;6.00;2.30;;;;;;;33.14;26.45;100657.81;104592;1254;107915;-69
2023/06/11 06:15:57;;;;;;;7.50;2.50;;;;;;;34.19;25.05;100658.64;104153;1254;96303;-69
2023/06/11 06:18:27;;;;;;;3.70;2.10;;;;;;;35.13;24.07;100655.55;103477;1254;103786;-69
2023/06/11 06:20:55;;;;;;;7.20;2.10;;;;;;;36.09;23.11;100657.36;104452;1254;137746;-69
2023/06/11 06:23:22;;;;;;;4.90;2.00;;;;;;;36.92;21.99;100660.30;104583;1254;96186;-69
2023/06/11 06:26:01;;;;;;;7.50;2.20;;;;;;;37.78;21.34;100656.19;104201;1254;139014;-70
2023/06/11 06:28:30;;;;;;;8.10;2.30;;;;;;;38.54;20.69;100656.71;103518;1259;97945;-68
2023/06/11 06:30:58;;;;;;;4.50;1.80;;;;;;;39.13;19.73;100657.24;104022;1254;102802;-68
2023/06/11 06:33:25;;;;;;;9.70;2.20;;;;;;;39.68;19.15;100656.40;103251;1254;138066;-68
2023/06/11 06:35:53;;;;;;;3.20;1.60;;;;;;;40.11;18.43;100659.23;103929;1254;97893;-68
2023/06/11 06:38:20;;;;;;;5.90;2.00;;;;;;;40.52;18.13;100661.45;103230;1254;137639;-68
2023/06/11 06:40:48;;;;;;;4.80;1.90;;;;;;;40.93;17.46;100661.09;103510;1254;97903;-68
2023/06/11 06:43:15;;;;;;;3.90;1.70;;;;;;;41.37;17.09;100658.36;104540;1254;103997;-68
2023/06/11 06:45:43;;;;;;;5.70;2.20;;;;;;;41.85;16.59;100656.38;103755;1257;139445;-68
2023/06/11 06:48:19;;;;;;;4.70;1.70;;;;;;;42.28;16.31;100660.20;103265;1260;97826;-68
2023/06/11 06:50:46;;;;;;;5.00;1.70;;;;;;;42.70;15.75;100663.51;103365;1254;137649;-69
2023/06/11 06:53:14;;;;;;;4.10;1.70;;;;;;;43.06;15.46;100658.80;103364;1254;97791;-68
2023/06/11 06:55:43;;;;;;;2.80;1.90;;;;;;;43.35;15.19;100657.79;104363;1254;138481;-69
2023/06/11 06:58:10;;;;;;;2.90;1.70;;;;;;;43.66;14.76;100662.78;103817;1254;98614;-68
2023/06/11 07:00:38;;;;;;;4.30;1.80;;;;;;;43.80;14.13;100660.53;103818;1254;97903;-68
2023/06/11 07:03:05;;;;;;;4.70;1.70;;;;;;;43.72;13.74;100660.81;103171;1254;138180;-69
2023/06/11 07:05:33;;;;;;;3.50;1.60;;;;;;;43.57;13.60;100658.21;103353;1254;97880;-69
2023/06/11 07:08:02;;;;;;;6.40;1.80;;;;;;;43.35;12.98;100659.14;103188;1255;137758;-69
2023/06/11 07:10:31;;;;;;;2.90;1.70;;;;;;;42.74;12.75;100653.81;103288;1254;100812;-69
2023/06/11 07:12:58;;;;;;;4.00;1.60;;;;;;;42.27;12.83;100656.38;103708;1255;97783;-68
2023/06/11 07:15:27;;;;;;;3.60;1.90;;;;;;;41.74;12.29;100652.48;103119;1254;137826;-67
2023/06/11 07:17:55;;;;;;;5.50;1.50;;;;;;;41.11;12.94;100661.17;104589;1254;96213;-88
2023/06/11 07:20:22;;;;;;;9.20;1.80;;;;;;;41.02;12.98;100661.64;103087;1257;137571;-80
2023/06/11 07:22:50;;;;;;;3.90;1.40;;;;;;;40.98;13.22;100658.36;103098;1258;99773;-80
2023/06/11 07:25:18;;;;;;;10.60;1.70;;;;;;;40.97;13.45;100659.23;103261;1257;97800;-81
2023/06/11 07:27:45;;;;;;;3.60;1.70;;;;;;;41.02;13.45;100657.80;103032;1254;137799;-81
2023/06/11 07:30:15;;;;;;;2.60;1.60;;;;;;;40.99;13.20;100665.28;103095;1254;97906;-82
2023/06/11 07:32:42;;;;;;;5.50;1.80;;;;;;;40.89;13.00;100662.14;103117;1254;137591;-82
2023/06/11 07:35:11;;;;;;;6.10;1.40;;;;;;;40.74;12.80;100663.27;103204;1254;100207;-81
2023/06/11 07:37:38;;;;;;;5.00;1.60;;;;;;;40.63;13.07;100662.00;103100;1259;137885;-81
2023/06/11 07:40:11;;;;;;;5.70;1.40;;;;;;;40.60;12.82;100661.50;103287;1253;100085;-81
2023/06/11 07:42:39;;;;;;;3.00;1.40;;;;;;;40.51;12.83;100661.38;103159;1254;97767;-82
2023/06/11 07:45:08;;;;;;;5.50;1.40;;;;;;;40.36;12.85;100662.67;103045;1254;137759;-80
2023/06/11 07:47:35;;;;;;;4.70;1.40;;;;;;;40.26;12.83;100662.79;104580;1254;100440;-81
2023/06/11 07:50:03;;;;;;;2.20;1.50;;;;;;;40.13;12.71;100662.64;104521;1254;138028;-82
2023/06/11 07:52:30;;;;;;;5.30;1.70;;;;;;;40.04;12.61;100662.94;103311;1254;98820;-82
2023/06/11 07:55:02;;;;;;;6.20;1.50;;;;;;;39.84;11.88;100667.45;103089;1259;97769;-67
2023/06/11 07:57:29;;;;;;;3.00;1.50;;;;;;;39.00;11.84;100660.51;103099;1254;137651;-66
2023/06/11 07:59:57;;;;;;;7.70;1.80;;;;;;;38.41;12.82;100661.23;103214;1254;99993;-67
2023/06/11 08:02:27;;;;;;;12.40;1.80;;;;;;;38.25;13.04;100659.05;103138;1254;137687;-66
2023/06/11 08:04:55;;;;;;;8.40;1.70;;;;;;;38.12;12.91;100660.54;104605;1254;99991;-67
2023/06/11 08:07:22;;;;;;;4.50;1.40;;;;;;;37.89;12.78;100657.16;104628;1253;96813;-67
2023/06/11 08:09:50;;;;;;;2.50;1.30;;;;;;;37.46;13.15;100656.55;104474;1254;137935;-67
2023/06/11 08:12:17;;;;;;;2.80;1.60;;;;;;;37.29;13.18;100657.16;104551;1254;100042;-67
2023/06/11 08:14:44;;;;;;;7.90;1.50;;;;;;;36.94;13.31;100658.06;104521;1254;138533;-67
2023/06/11 08:17:11;;;;;;;4.40;1.40;;;;;;;36.65;13.74;100663.17;103882;1254;100942;-66
2023/06/11 08:19:39;;;;;;;3.10;1.70;;;;;;;36.53;13.74;100661.92;103107;1257;137992;-67
2023/06/11 08:22:07;;;;;;;5.60;1.70;;;;;;;36.21;14.06;100655.17;103336;1253;104716;-67
2023/06/11 08:24:34;;;;;;;3.70;1.50;;;;;;;35.97;14.47;100652.77;103247;1254;99522;-70
2023/06/11 08:27:02;;;;;;;4.30;2.20;;;;;;;35.74;14.33;100650.81;103040;1253;137597;-68
2023/06/11 08:29:29;;;;;;;8.40;1.80;;;;;;;35.44;14.95;100651.71;103231;1253;99450;-68
2023/06/11 08:31:56;;;;;;;4.00;1.70;;;;;;;35.55;15.32;100647.75;103213;1254;137838;-68
2023/06/11 08:34:23;;;;;;;4.80;1.80;;;;;;;35.60;15.34;100652.90;104591;1254;103934;-66
2023/06/11 08:36:50;;;;;;;4.90;2.00;;;;;;;35.44;15.05;100647.15;103606;1254;100195;-69
2023/06/11 08:39:17;;;;;;;6.30;2.10;;;;;;;34.86;15.04;100656.65;103209;1253;137871;-75
2023/06/11 08:41:45;;;;;;;6.20;1.80;;;;;;;34.55;15.87;100650.27;103237;1257;99923;-65
2023/06/11 08:44:14;;;;;;;7.40;1.60;;;;;;;34.80;16.00;100648.88;103117;1253;137983;-71
2023/06/11 08:46:44;;;;;;;6.10;1.90;;;;;;;35.11;15.89;100641.61;103175;1253;103971;-79
2023/06/11 08:49:20;;;;;;;2.30;1.60;;;;;;;35.14;15.78;100648.39;103063;1253;99237;-70
2023/06/11 08:51:47;;;;;;;5.10;1.80;;;;;;;35.01;15.99;100649.22;103518;1254;137912;-65
2023/06/11 08:54:15;;;;;;;5.50;2.30;;;;;;;34.90;16.17;100647.20;103223;1254;100612;-67
2023/06/11 08:56:43;;;;;;;3.30;1.60;;;;;;;34.89;15.81;100645.05;103933;1253;139070;-67
2023/06/11 08:59:10;;;;;;;6.60;1.80;;;;;;;34.85;16.42;100641.01;104562;1253;103367;-67
2023/06/11 09:01:38;;;;;;;8.90;2.20;;;;;;;34.98;16.70;100641.15;104451;1254;137863;-67
2023/06/11 09:04:07;;;;;;;7.60;1.80;;;;;;;35.15;16.11;100642.84;103336;1253;97775;-67
2023/06/11 09:06:34;;;;;;;2.60;1.80;;;;;;;34.74;15.82;100643.48;103373;1253;100318;-66
2023/06/11 09:09:05;;;;;;;2.60;1.90;;;;;;;34.34;16.17;100639.86;103088;1254;137913;-67
2023/06/11 09:11:36;;;;;;;9.60;1.60;;;;;;;34.22;16.74;100639.77;103718;1254;103923;-67
2023/06/11 09:14:05;;;;;;;6.20;1.70;;;;;;;34.32;17.08;100634.52;103653;1253;137985;-67
2023/06/11 09:16:40;;;;;;;5.10;1.60;;;;;;;34.46;17.03;100635.58;103719;1257;96674;-66
2023/06/11 09:19:09;;;;;;;7.40;1.90;;;;;;;34.43;16.44;100636.01;104209;1255;100156;-66
2023/06/11 09:21:38;;;;;;;5.20;1.90;;;;;;;34.25;16.17;100639.36;104454;1253;138205;-66
2023/06/11 09:24:10;;;;;;;3.60;1.60;;;;;;;33.94;16.42;100630.63;104558;1253;103996;-68
2023/06/11 09:26:37;;;;;;;3.40;1.60;;;;;;;33.54;16.68;100624.45;103794;1257;137940;-66
2023/06/11 09:29:06;;;;;;;4.00;1.50;;;;;;;33.23;17.70;100625.04;103848;1253;97890;-67
2023/06/11 09:31:33;;;;;;;5.20;1.90;;;;;;;33.24;17.67;100619.83;104105;1256;100768;-66
2023/06/11 09:34:06;;;;;;;4.60;1.80;;;;;;;33.33;17.33;100621.09;104389;1253;95860;-67
2023/06/11 09:36:34;;;;;;;5.60;1.90;;;;;;;33.36;17.55;100614.96;104621;1254;103508;-72
2023/06/11 09:39:02;;;;;;;8.80;2.60;;;;;;;33.48;17.17;100615.70;103736;1254;138056;-69
2023/06/11 09:41:29;;;;;;;8.20;2.30;;;;;;;33.34;17.32;100619.64;103260;1257;97903;-67
2023/06/11 09:43:57;;;;;;;6.90;1.90;;;;;;;33.25;17.40;100620.06;103575;1253;137857;-66
2023/06/11 09:46:26;;;;;;;4.50;2.00;;;;;;;33.11;17.60;100619.65;103785;1253;97824;-66
2023/06/11 09:48:54;;;;;;;6.00;2.00;;;;;;;32.92;17.19;100617.80;104641;1253;114013;-69
2023/06/11 09:51:23;;;;;;;5.60;2.20;;;;;;;32.64;17.34;100619.00;104379;1253;138168;-66
2023/06/11 09:53:53;;;;;;;3.50;2.20;;;;;;;32.52;18.03;100621.35;104594;1253;96191;-65
2023/06/11 09:56:21;;;;;;;3.80;1.70;;;;;;;32.51;17.99;100625.60;103977;1257;137655;-67
2023/06/11 09:58:50;;;;;;;2.60;1.80;;;;;;;32.36;17.75;100617.84;103631;1253;97790;-67
2023/06/11 10:01:18;;;;;;;5.70;2.00;;;;;;;32.18;17.95;100625.34;104623;1253;111391;-68
2023/06/11 10:03:47;;;;;;;5.20;2.00;;;;;;;32.12;18.50;100616.02;103803;1253;325747;-66
2023/06/11 10:06:19;;;;;;;6.70;2.00;;;;;;;32.14;18.24;100619.37;104659;1253;96033;-66
2023/06/11 10:08:50;;;;;;;8.50;2.10;;;;;;;32.14;18.36;100616.23;103693;1253;137692;-66
2023/06/11 10:11:21;;;;;;;5.00;1.60;;;;;;;32.20;18.60;100610.77;104551;1253;96652;-66
2023/06/11 10:13:59;;;;;;;7.90;2.10;;;;;;;32.32;19.26;100608.92;104390;1253;138336;-65
2023/06/11 10:16:27;;;;;;;4.30;1.80;;;;;;;32.41;18.80;100609.86;103180;1254;108129;-65
2023/06/11 10:19:02;;;;;;;2.70;2.10;;;;;;;32.41;18.35;100616.01;103649;1253;97672;-65
2023/06/11 10:21:40;;;;;;;5.30;1.90;;;;;;;32.23;18.00;100605.92;103707;1254;137624;-65
2023/06/11 10:24:08;;;;;;;11.50;2.10;;;;;;;32.08;18.64;100607.84;103784;1253;98148;-65
2023/06/11 10:26:36;;;;;;;7.20;1.90;;;;;;;32.14;19.18;100603.59;103507;1257;137810;-65
2023/06/11 10:29:10;;;;;;;4.70;2.00;;;;;;;32.17;18.98;100593.44;103577;1253;107663;-66
2023/06/11 10:31:41;;;;;;;5.50;1.80;;;;;;;31.99;19.86;100603.46;103141;1254;138095;-65
2023/06/11 10:34:13;;;;;;;7.70;2.20;;;;;;;31.98;19.01;100601.81;103188;1257;108011;-67
2023/06/11 10:36:41;;;;;;;5.00;2.20;;;;;;;31.70;18.30;100597.13;103207;1257;97809;-67
2023/06/11 10:39:21;;;;;;;4.00;2.10;;;;;;;30.98;18.19;100593.16;103171;1254;137644;-71
2023/06/11 10:41:58;;;;;;;7.50;2.30;;;;;;;30.50;19.58;100594.96;103165;1253;107317;-67
2023/06/11 10:44:29;;;;;;;3.40;1.80;;;;;;;30.34;19.82;100595.52;103166;1253;137812;-67
2023/06/11 10:47:00;;;;;;;6.60;2.40;;;;;;;30.11;19.91;100591.91;104593;1253;107200;-79
2023/06/11 10:49:29;;;;;;;11.10;2.60;;;;;;;29.84;19.97;100589.81;103317;1257;97797;-83
2023/06/11 10:52:00;;;;;;;6.00;2.30;;;;;;;29.63;19.84;100592.12;103343;1254;112646;-82
2023/06/11 10:54:28;;;;;;;5.50;2.20;;;;;;;29.31;20.34;100589.36;104660;1254;107311;-85
2023/06/11 10:56:58;;;;;;;6.70;2.60;;;;;;;29.06;20.13;100593.45;103691;1257;137796;-84
2023/06/11 10:59:26;;;;;;;5.70;2.10;;;;;;;28.53;20.05;100600.02;103255;1253;107659;-84
2023/06/11 11:01:55;;;;;;;8.00;2.50;;;;;;;28.26;20.47;100602.14;103239;1257;136885;-84
2023/06/11 11:04:23;;;;;;;3.00;1.90;;;;;;;28.16;20.81;100599.80;103285;1257;110811;-83
2023/06/11 11:06:52;;;;;;;5.90;2.30;;;;;;;28.07;20.53;100591.45;103217;1253;108833;-82
2023/06/11 11:09:24;;;;;;;4.80;2.40;;;;;;;28.01;21.06;100594.34;103137;1257;139004;-82
2023/06/11 11:11:52;;;;;;;5.60;2.60;;;;;;;27.83;21.27;100601.63;103156;1253;107964;-83
2023/06/11 11:14:19;;;;;;;7.50;2.50;;;;;;;27.75;21.82;100604.05;103059;1258;139513;-83
2023/06/11 11:16:49;;;;;;;4.80;2.20;;;;;;;27.82;21.92;100602.63;103162;1257;110923;-84
2023/06/11 11:19:16;;;;;;;4.10;2.40;;;;;;;27.79;21.71;100591.87;103127;1253;109346;-76
2023/06/11 11:21:50;;;;;;;7.00;2.70;;;;;;;27.70;22.09;100596.34;102970;1257;138002;-77